sensor_id;sensor_type;location;lat;lon;timestamp;temperature;humidity
12948;DHT22;6539;49.476;8.484;2023-03-03T00:01:45;7.70;99.90
12948;DHT22;6539;49.476;8.484;2023-03-03T00:04:13;7.70;99.90
12948;DHT22;6539;49.476;8.484;2023-03-03T00:06:39;7.40;99.90
12948;DHT22;6539;49.476;8.484;2023-03-03T00:09:05;7.40;99.90
12948;DHT22;6539;49.476;8.484;2023-03-03T00:11:31;7.40;99.90
12948;DHT22;6539;49.476;8.484;2023-03-03T00:13:56;7.60;99.90
12948;DHT22;6539;49.476;8.484;2023-03-03T00:16:31;7.40;99.90
12948;DHT22;6539;49.476;8.484;2023-03-03T00:19:13;7.50;99.90
12948;DHT22;6539;49.476;8.484;2023-03-03T00:21:47;7.10;99.90
12948;DHT22;6539;49.476;8.484;2023-03-03T00:24:29;7.30;99.90
12948;DHT22;6539;49.476;8.484;2023-03-03T00:27:17;7.20;99.90
12948;DHT22;6539;49.476;8.484;2023-03-03T00:29:55;7.40;99.90
12948;DHT22;6539;49.476;8.484;2023-03-03T00:34:53;7.50;99.90
12948;DHT22;6539;49.476;8.484;2023-03-03T00:37:32;7.80;99.90
12948;DHT22;6539;49.476;8.484;2023-03-03T00:40:19;7.40;99.90
12948;DHT22;6539;49.476;8.484;2023-03-03T00:42:57;7.00;99.90
12948;DHT22;6539;49.476;8.484;2023-03-03T00:45:44;7.00;99.90
12948;DHT22;6539;49.476;8.484;2023-03-03T00:48:30;7.40;99.90
12948;DHT22;6539;49.476;8.484;2023-03-03T00:51:25;7.30;99.90
12948;DHT22;6539;49.476;8.484;2023-03-03T00:53:56;7.10;99.90
12948;DHT22;6539;49.476;8.484;2023-03-03T00:56:23;7.30;99.90
12948;DHT22;6539;49.476;8.484;2023-03-03T00:58:51;7.30;99.90
12948;DHT22;6539;49.476;8.484;2023-03-03T01:01:18;7.40;99.90
12948;DHT22;6539;49.476;8.484;2023-03-03T01:03:44;7.10;99.90
12948;DHT22;6539;49.476;8.484;2023-03-03T01:06:12;6.80;99.90
12948;DHT22;6539;49.476;8.484;2023-03-03T01:08:38;6.80;99.90
12948;DHT22;6539;49.476;8.484;2023-03-03T01:11:24;6.80;99.90
12948;DHT22;6539;49.476;8.484;2023-03-03T01:13:52;6.80;99.90
12948;DHT22;6539;49.476;8.484;2023-03-03T01:16:19;7.00;99.90
12948;DHT22;6539;49.476;8.484;2023-03-03T01:18:47;6.90;99.90
12948;DHT22;6539;49.476;8.484;2023-03-03T01:21:12;6.80;99.90
12948;DHT22;6539;49.476;8.484;2023-03-03T01:23:40;6.80;99.90
12948;DHT22;6539;49.476;8.484;2023-03-03T01:26:09;6.80;99.90
12948;DHT22;6539;49.476;8.484;2023-03-03T01:31:03;7.00;99.90
12948;DHT22;6539;49.476;8.484;2023-03-03T01:33:31;6.90;99.90
12948;DHT22;6539;49.476;8.484;2023-03-03T01:35:58;6.60;99.90
12948;DHT22;6539;49.476;8.484;2023-03-03T01:38:26;6.80;99.90
12948;DHT22;6539;49.476;8.484;2023-03-03T01:40:56;6.60;99.90
12948;DHT22;6539;49.476;8.484;2023-03-03T01:43:26;6.70;99.90
12948;DHT22;6539;49.476;8.484;2023-03-03T01:51:01;6.30;99.90
12948;DHT22;6539;49.476;8.484;2023-03-03T01:53:47;6.30;99.90
12948;DHT22;6539;49.476;8.484;2023-03-03T01:59:04;6.50;99.90
12948;DHT22;6539;49.476;8.484;2023-03-03T02:01:42;6.70;99.90
12948;DHT22;6539;49.476;8.484;2023-03-03T02:04:09;6.60;99.90
12948;DHT22;6539;49.476;8.484;2023-03-03T02:06:37;6.50;99.90
12948;DHT22;6539;49.476;8.484;2023-03-03T02:11:59;6.50;99.90
12948;DHT22;6539;49.476;8.484;2023-03-03T02:14:29;6.40;99.90
12948;DHT22;6539;49.476;8.484;2023-03-03T02:16:55;6.40;99.90
12948;DHT22;6539;49.476;8.484;2023-03-03T02:22:07;6.20;99.90
12948;DHT22;6539;49.476;8.484;2023-03-03T02:24:44;6.50;99.90
12948;DHT22;6539;49.476;8.484;2023-03-03T02:27:15;6.10;99.90
12948;DHT22;6539;49.476;8.484;2023-03-03T02:29:41;6.40;99.90
12948;DHT22;6539;49.476;8.484;2023-03-03T02:32:09;6.40;99.90
12948;DHT22;6539;49.476;8.484;2023-03-03T02:34:49;6.40;99.90
12948;DHT22;6539;49.476;8.484;2023-03-03T02:37:17;6.10;99.90
12948;DHT22;6539;49.476;8.484;2023-03-03T02:39:44;6.00;99.90
12948;DHT22;6539;49.476;8.484;2023-03-03T02:42:18;6.40;99.90
12948;DHT22;6539;49.476;8.484;2023-03-03T02:44:46;6.20;99.90
12948;DHT22;6539;49.476;8.484;2023-03-03T02:47:14;6.30;99.90
12948;DHT22;6539;49.476;8.484;2023-03-03T02:49:40;6.20;99.90
12948;DHT22;6539;49.476;8.484;2023-03-03T02:52:10;6.30;99.90
12948;DHT22;6539;49.476;8.484;2023-03-03T02:54:36;6.20;99.90
12948;DHT22;6539;49.476;8.484;2023-03-03T02:57:05;6.20;99.90
12948;DHT22;6539;49.476;8.484;2023-03-03T02:59:34;6.70;99.90
12948;DHT22;6539;49.476;8.484;2023-03-03T03:01:59;6.70;99.90
12948;DHT22;6539;49.476;8.484;2023-03-03T03:04:26;6.60;99.90
12948;DHT22;6539;49.476;8.484;2023-03-03T03:06:55;6.60;99.90
12948;DHT22;6539;49.476;8.484;2023-03-03T03:09:24;6.50;99.90
12948;DHT22;6539;49.476;8.484;2023-03-03T03:11:50;6.50;99.90
12948;DHT22;6539;49.476;8.484;2023-03-03T03:14:19;6.60;99.90
12948;DHT22;6539;49.476;8.484;2023-03-03T03:16:48;6.60;99.90
12948;DHT22;6539;49.476;8.484;2023-03-03T03:19:16;6.40;99.90
12948;DHT22;6539;49.476;8.484;2023-03-03T03:21:44;6.30;99.90
12948;DHT22;6539;49.476;8.484;2023-03-03T03:24:12;6.00;99.90
12948;DHT22;6539;49.476;8.484;2023-03-03T03:26:38;6.20;99.90
12948;DHT22;6539;49.476;8.484;2023-03-03T03:29:05;6.10;99.90
12948;DHT22;6539;49.476;8.484;2023-03-03T03:31:32;6.20;99.90
12948;DHT22;6539;49.476;8.484;2023-03-03T03:34:00;6.20;99.90
12948;DHT22;6539;49.476;8.484;2023-03-03T03:36:28;6.20;99.90
12948;DHT22;6539;49.476;8.484;2023-03-03T03:38:54;5.90;99.90
12948;DHT22;6539;49.476;8.484;2023-03-03T03:41:25;6.00;99.90
12948;DHT22;6539;49.476;8.484;2023-03-03T03:46:17;6.00;99.90
12948;DHT22;6539;49.476;8.484;2023-03-03T03:48:45;6.00;99.90
12948;DHT22;6539;49.476;8.484;2023-03-03T03:51:11;6.10;99.90
12948;DHT22;6539;49.476;8.484;2023-03-03T03:53:37;5.80;99.90
12948;DHT22;6539;49.476;8.484;2023-03-03T03:56:06;6.00;99.90
12948;DHT22;6539;49.476;8.484;2023-03-03T03:58:36;5.70;99.90
12948;DHT22;6539;49.476;8.484;2023-03-03T04:01:04;5.90;99.90
12948;DHT22;6539;49.476;8.484;2023-03-03T04:03:32;5.70;99.90
12948;DHT22;6539;49.476;8.484;2023-03-03T04:05:58;6.00;99.90
12948;DHT22;6539;49.476;8.484;2023-03-03T04:08:26;5.80;99.90
12948;DHT22;6539;49.476;8.484;2023-03-03T04:10:54;6.10;99.90
12948;DHT22;6539;49.476;8.484;2023-03-03T04:13:20;5.80;99.90
12948;DHT22;6539;49.476;8.484;2023-03-03T04:15:46;6.00;99.90
12948;DHT22;6539;49.476;8.484;2023-03-03T04:18:12;5.70;99.90
12948;DHT22;6539;49.476;8.484;2023-03-03T04:20:39;6.00;99.90
12948;DHT22;6539;49.476;8.484;2023-03-03T04:23:05;5.70;99.90
12948;DHT22;6539;49.476;8.484;2023-03-03T04:25:35;5.90;99.90
12948;DHT22;6539;49.476;8.484;2023-03-03T04:28:01;5.80;99.90
12948;DHT22;6539;49.476;8.484;2023-03-03T04:30:27;5.90;99.90
12948;DHT22;6539;49.476;8.484;2023-03-03T04:32:52;5.80;99.90
12948;DHT22;6539;49.476;8.484;2023-03-03T04:35:20;5.80;99.90
12948;DHT22;6539;49.476;8.484;2023-03-03T04:37:48;5.90;99.90
12948;DHT22;6539;49.476;8.484;2023-03-03T04:40:16;5.70;99.90
12948;DHT22;6539;49.476;8.484;2023-03-03T04:42:44;5.90;99.90
12948;DHT22;6539;49.476;8.484;2023-03-03T04:45:13;5.70;99.90
12948;DHT22;6539;49.476;8.484;2023-03-03T04:47:41;6.10;99.90
12948;DHT22;6539;49.476;8.484;2023-03-03T04:50:10;6.10;99.90
12948;DHT22;6539;49.476;8.484;2023-03-03T04:52:36;6.00;99.90
12948;DHT22;6539;49.476;8.484;2023-03-03T04:55:05;5.80;99.90
12948;DHT22;6539;49.476;8.484;2023-03-03T04:57:36;5.50;99.90
12948;DHT22;6539;49.476;8.484;2023-03-03T05:00:02;5.70;99.90
12948;DHT22;6539;49.476;8.484;2023-03-03T05:02:29;5.70;99.90
12948;DHT22;6539;49.476;8.484;2023-03-03T05:04:55;5.70;99.90
12948;DHT22;6539;49.476;8.484;2023-03-03T05:07:20;5.60;99.90
12948;DHT22;6539;49.476;8.484;2023-03-03T05:09:46;5.70;99.90
12948;DHT22;6539;49.476;8.484;2023-03-03T05:12:16;5.70;99.90
12948;DHT22;6539;49.476;8.484;2023-03-03T05:14:42;5.60;99.90
12948;DHT22;6539;49.476;8.484;2023-03-03T05:17:15;5.50;99.90
12948;DHT22;6539;49.476;8.484;2023-03-03T05:19:44;5.60;99.90
12948;DHT22;6539;49.476;8.484;2023-03-03T05:22:10;6.00;99.90
12948;DHT22;6539;49.476;8.484;2023-03-03T05:24:35;5.50;99.90
12948;DHT22;6539;49.476;8.484;2023-03-03T05:27:01;5.50;99.90
12948;DHT22;6539;49.476;8.484;2023-03-03T05:29:28;5.40;99.90
12948;DHT22;6539;49.476;8.484;2023-03-03T05:31:56;5.20;99.90
12948;DHT22;6539;49.476;8.484;2023-03-03T05:34:22;5.50;99.90
12948;DHT22;6539;49.476;8.484;2023-03-03T05:36:50;5.40;99.90
12948;DHT22;6539;49.476;8.484;2023-03-03T05:39:18;5.20;99.90
12948;DHT22;6539;49.476;8.484;2023-03-03T05:41:44;5.20;99.90
12948;DHT22;6539;49.476;8.484;2023-03-03T05:44:10;5.10;99.90
12948;DHT22;6539;49.476;8.484;2023-03-03T05:46:36;5.10;99.90
12948;DHT22;6539;49.476;8.484;2023-03-03T05:49:02;5.00;99.90
12948;DHT22;6539;49.476;8.484;2023-03-03T05:51:27;5.40;99.90
12948;DHT22;6539;49.476;8.484;2023-03-03T05:53:56;5.00;99.90
12948;DHT22;6539;49.476;8.484;2023-03-03T05:56:27;5.00;99.90
12948;DHT22;6539;49.476;8.484;2023-03-03T05:58:54;5.20;99.90
12948;DHT22;6539;49.476;8.484;2023-03-03T06:01:20;5.30;99.90
12948;DHT22;6539;49.476;8.484;2023-03-03T06:03:51;5.30;99.90
12948;DHT22;6539;49.476;8.484;2023-03-03T06:06:17;5.00;99.90
12948;DHT22;6539;49.476;8.484;2023-03-03T06:08:44;4.90;99.90
12948;DHT22;6539;49.476;8.484;2023-03-03T06:11:10;5.10;99.90
12948;DHT22;6539;49.476;8.484;2023-03-03T06:13:42;5.00;99.90
12948;DHT22;6539;49.476;8.484;2023-03-03T06:16:07;4.90;99.90
12948;DHT22;6539;49.476;8.484;2023-03-03T06:18:33;5.20;99.90
12948;DHT22;6539;49.476;8.484;2023-03-03T06:20:59;5.00;99.90
12948;DHT22;6539;49.476;8.484;2023-03-03T06:23:30;4.90;99.90
12948;DHT22;6539;49.476;8.484;2023-03-03T06:25:56;5.10;99.90
12948;DHT22;6539;49.476;8.484;2023-03-03T06:28:22;5.00;99.90
12948;DHT22;6539;49.476;8.484;2023-03-03T06:30:52;4.80;99.90
12948;DHT22;6539;49.476;8.484;2023-03-03T06:33:19;4.90;99.90
12948;DHT22;6539;49.476;8.484;2023-03-03T06:35:52;5.00;99.90
12948;DHT22;6539;49.476;8.484;2023-03-03T06:38:19;5.20;99.90
12948;DHT22;6539;49.476;8.484;2023-03-03T06:40:46;5.30;99.90
12948;DHT22;6539;49.476;8.484;2023-03-03T06:43:12;5.50;99.90
12948;DHT22;6539;49.476;8.484;2023-03-03T06:45:39;5.10;99.90
12948;DHT22;6539;49.476;8.484;2023-03-03T06:48:07;5.10;99.90
12948;DHT22;6539;49.476;8.484;2023-03-03T06:50:33;5.10;99.90
12948;DHT22;6539;49.476;8.484;2023-03-03T06:55:37;5.00;99.90
12948;DHT22;6539;49.476;8.484;2023-03-03T06:58:17;5.10;99.90
12948;DHT22;6539;49.476;8.484;2023-03-03T07:00:57;5.30;99.90
12948;DHT22;6539;49.476;8.484;2023-03-03T07:03:25;5.10;99.90
12948;DHT22;6539;49.476;8.484;2023-03-03T07:05:54;5.40;99.90
12948;DHT22;6539;49.476;8.484;2023-03-03T07:08:30;5.60;99.90
12948;DHT22;6539;49.476;8.484;2023-03-03T07:11:00;5.60;99.90
12948;DHT22;6539;49.476;8.484;2023-03-03T07:13:43;5.40;99.90
12948;DHT22;6539;49.476;8.484;2023-03-03T07:16:12;5.60;99.90
12948;DHT22;6539;49.476;8.484;2023-03-03T07:18:52;5.20;99.90
12948;DHT22;6539;49.476;8.484;2023-03-03T07:21:33;5.30;99.90
12948;DHT22;6539;49.476;8.484;2023-03-03T07:24:26;5.30;99.90
12948;DHT22;6539;49.476;8.484;2023-03-03T07:27:11;5.50;99.90
12948;DHT22;6539;49.476;8.484;2023-03-03T07:29:38;5.50;99.90
12948;DHT22;6539;49.476;8.484;2023-03-03T07:32:24;5.70;99.90
12948;DHT22;6539;49.476;8.484;2023-03-03T07:34:55;5.60;99.90
12948;DHT22;6539;49.476;8.484;2023-03-03T07:37:38;5.60;99.90
12948;DHT22;6539;49.476;8.484;2023-03-03T07:40:37;5.60;99.90
12948;DHT22;6539;49.476;8.484;2023-03-03T07:43:37;6.20;99.90
12948;DHT22;6539;49.476;8.484;2023-03-03T07:46:27;6.40;99.90
12948;DHT22;6539;49.476;8.484;2023-03-03T07:52:02;8.10;99.90
12948;DHT22;6539;49.476;8.484;2023-03-03T07:54:44;8.60;99.90
12948;DHT22;6539;49.476;8.484;2023-03-03T07:59:54;9.70;99.90
12948;DHT22;6539;49.476;8.484;2023-03-03T08:02:57;10.00;99.90
12948;DHT22;6539;49.476;8.484;2023-03-03T08:05:39;10.60;99.90
12948;DHT22;6539;49.476;8.484;2023-03-03T08:10:53;11.10;99.90
12948;DHT22;6539;49.476;8.484;2023-03-03T08:13:22;11.20;99.90
12948;DHT22;6539;49.476;8.484;2023-03-03T08:18:48;11.60;99.90
12948;DHT22;6539;49.476;8.484;2023-03-03T08:21:20;11.60;99.90
12948;DHT22;6539;49.476;8.484;2023-03-03T08:23:52;11.40;99.90
12948;DHT22;6539;49.476;8.484;2023-03-03T08:26:20;11.80;99.90
12948;DHT22;6539;49.476;8.484;2023-03-03T08:28:47;12.00;99.90
12948;DHT22;6539;49.476;8.484;2023-03-03T08:31:13;12.00;99.90
12948;DHT22;6539;49.476;8.484;2023-03-03T08:33:44;12.10;99.90
12948;DHT22;6539;49.476;8.484;2023-03-03T08:36:10;12.10;99.90
12948;DHT22;6539;49.476;8.484;2023-03-03T08:38:37;12.10;99.90
12948;DHT22;6539;49.476;8.484;2023-03-03T08:41:07;12.30;99.90
12948;DHT22;6539;49.476;8.484;2023-03-03T08:43:36;12.50;99.90
12948;DHT22;6539;49.476;8.484;2023-03-03T08:46:06;12.70;99.90
12948;DHT22;6539;49.476;8.484;2023-03-03T08:48:37;12.70;99.90
12948;DHT22;6539;49.476;8.484;2023-03-03T08:51:08;12.90;99.90
12948;DHT22;6539;49.476;8.484;2023-03-03T08:53:40;12.80;99.90
12948;DHT22;6539;49.476;8.484;2023-03-03T08:56:06;13.00;99.60
12948;DHT22;6539;49.476;8.484;2023-03-03T08:58:34;13.10;99.90
12948;DHT22;6539;49.476;8.484;2023-03-03T09:01:02;13.00;99.30
12948;DHT22;6539;49.476;8.484;2023-03-03T09:03:33;13.00;99.60
12948;DHT22;6539;49.476;8.484;2023-03-03T09:05:59;13.70;99.80
12948;DHT22;6539;49.476;8.484;2023-03-03T09:08:24;13.60;99.10
12948;DHT22;6539;49.476;8.484;2023-03-03T09:10:50;13.50;99.50
12948;DHT22;6539;49.476;8.484;2023-03-03T09:13:18;13.40;99.90
12948;DHT22;6539;49.476;8.484;2023-03-03T09:15:45;13.50;99.80
12948;DHT22;6539;49.476;8.484;2023-03-03T09:26:27;14.60;97.20
12948;DHT22;6539;49.476;8.484;2023-03-03T09:31:47;14.40;96.40
12948;DHT22;6539;49.476;8.484;2023-03-03T09:37:22;14.80;95.70
12948;DHT22;6539;49.476;8.484;2023-03-03T09:39:53;14.90;95.30
12948;DHT22;6539;49.476;8.484;2023-03-03T09:45:58;15.10;94.20
12948;DHT22;6539;49.476;8.484;2023-03-03T09:51:47;15.40;93.80
12948;DHT22;6539;49.476;8.484;2023-03-03T09:54:41;15.30;94.30
12948;DHT22;6539;49.476;8.484;2023-03-03T10:07:09;15.30;94.80
12948;DHT22;6539;49.476;8.484;2023-03-03T10:12:57;14.80;94.90
12948;DHT22;6539;49.476;8.484;2023-03-03T10:15:51;14.70;97.50
12948;DHT22;6539;49.476;8.484;2023-03-03T10:22:19;14.70;94.90
12948;DHT22;6539;49.476;8.484;2023-03-03T10:30:41;14.50;96.60
12948;DHT22;6539;49.476;8.484;2023-03-03T10:36:07;14.30;96.60
12948;DHT22;6539;49.476;8.484;2023-03-03T10:47:20;14.60;96.90
12948;DHT22;6539;49.476;8.484;2023-03-03T10:53:13;14.50;95.70
12948;DHT22;6539;49.476;8.484;2023-03-03T11:04:39;15.00;94.90
12948;DHT22;6539;49.476;8.484;2023-03-03T11:07:20;15.10;95.80
12948;DHT22;6539;49.476;8.484;2023-03-03T11:25:02;14.90;94.50
12948;DHT22;6539;49.476;8.484;2023-03-03T11:34:02;15.10;93.50
12948;DHT22;6539;49.476;8.484;2023-03-03T11:36:44;15.30;94.50
12948;DHT22;6539;49.476;8.484;2023-03-03T11:39:21;15.20;93.40
12948;DHT22;6539;49.476;8.484;2023-03-03T11:44:40;15.30;93.10
12948;DHT22;6539;49.476;8.484;2023-03-03T11:49:49;15.10;93.40
12948;DHT22;6539;49.476;8.484;2023-03-03T11:55:01;15.60;93.50
12948;DHT22;6539;49.476;8.484;2023-03-03T11:57:41;15.00;93.80
12948;DHT22;6539;49.476;8.484;2023-03-03T12:00:44;15.10;93.20
12948;DHT22;6539;49.476;8.484;2023-03-03T12:03:38;15.10;93.10
12948;DHT22;6539;49.476;8.484;2023-03-03T12:12:24;15.00;92.60
12948;DHT22;6539;49.476;8.484;2023-03-03T12:27:18;14.70;92.90
12948;DHT22;6539;49.476;8.484;2023-03-03T12:30:56;14.90;91.90
12948;DHT22;6539;49.476;8.484;2023-03-03T12:37:06;14.80;92.40
12948;DHT22;6539;49.476;8.484;2023-03-03T12:45:28;15.30;92.40
12948;DHT22;6539;49.476;8.484;2023-03-03T12:48:17;15.00;91.50
12948;DHT22;6539;49.476;8.484;2023-03-03T12:56:13;15.00;91.90
12948;DHT22;6539;49.476;8.484;2023-03-03T13:10:11;14.50;92.40
12948;DHT22;6539;49.476;8.484;2023-03-03T13:13:34;14.70;93.40
12948;DHT22;6539;49.476;8.484;2023-03-03T13:16:14;14.60;92.10
12948;DHT22;6539;49.476;8.484;2023-03-03T13:19:08;14.60;92.20
12948;DHT22;6539;49.476;8.484;2023-03-03T13:22:09;14.50;92.00
12948;DHT22;6539;49.476;8.484;2023-03-03T13:27:35;14.40;92.80
12948;DHT22;6539;49.476;8.484;2023-03-03T13:33:00;14.30;96.30
12948;DHT22;6539;49.476;8.484;2023-03-03T13:35:48;14.30;96.30
12948;DHT22;6539;49.476;8.484;2023-03-03T13:38:25;14.00;97.20
12948;DHT22;6539;49.476;8.484;2023-03-03T13:43:48;14.10;94.10
12948;DHT22;6539;49.476;8.484;2023-03-03T14:10:12;13.50;94.30
12948;DHT22;6539;49.476;8.484;2023-03-03T14:13:05;13.50;94.50
12948;DHT22;6539;49.476;8.484;2023-03-03T14:18:58;13.30;94.70
12948;DHT22;6539;49.476;8.484;2023-03-03T14:24:16;13.20;95.50
12948;DHT22;6539;49.476;8.484;2023-03-03T14:29:32;13.10;96.60
12948;DHT22;6539;49.476;8.484;2023-03-03T14:31:59;12.80;96.80
12948;DHT22;6539;49.476;8.484;2023-03-03T14:34:40;12.90;96.90
12948;DHT22;6539;49.476;8.484;2023-03-03T14:40:18;12.70;96.80
12948;DHT22;6539;49.476;8.484;2023-03-03T14:48:25;12.80;95.00
12948;DHT22;6539;49.476;8.484;2023-03-03T14:53:38;12.70;96.60
12948;DHT22;6539;49.476;8.484;2023-03-03T14:56:28;12.70;95.00
12948;DHT22;6539;49.476;8.484;2023-03-03T14:59:18;12.80;96.80
12948;DHT22;6539;49.476;8.484;2023-03-03T15:01:56;12.40;96.80
12948;DHT22;6539;49.476;8.484;2023-03-03T15:09:59;12.70;98.70
12948;DHT22;6539;49.476;8.484;2023-03-03T15:39:45;12.10;97.40
12948;DHT22;6539;49.476;8.484;2023-03-03T15:42:47;12.50;97.40
12948;DHT22;6539;49.476;8.484;2023-03-03T15:48:32;12.50;97.70
12948;DHT22;6539;49.476;8.484;2023-03-03T15:51:43;12.20;97.90
12948;DHT22;6539;49.476;8.484;2023-03-03T15:56:51;12.00;98.40
12948;DHT22;6539;49.476;8.484;2023-03-03T15:59:49;12.20;98.50
12948;DHT22;6539;49.476;8.484;2023-03-03T16:07:52;11.90;97.90
12948;DHT22;6539;49.476;8.484;2023-03-03T16:10:42;12.00;97.90
12948;DHT22;6539;49.476;8.484;2023-03-03T16:19:32;12.00;97.90
12948;DHT22;6539;49.476;8.484;2023-03-03T16:22:15;11.80;97.80
12948;DHT22;6539;49.476;8.484;2023-03-03T16:24:53;11.60;98.00
12948;DHT22;6539;49.476;8.484;2023-03-03T16:39:37;11.60;96.50
12948;DHT22;6539;49.476;8.484;2023-03-03T16:45:25;11.40;96.20
12948;DHT22;6539;49.476;8.484;2023-03-03T16:48:18;11.40;94.90
12948;DHT22;6539;49.476;8.484;2023-03-03T16:51:13;11.50;95.80
12948;DHT22;6539;49.476;8.484;2023-03-03T17:00:26;11.00;96.20
12948;DHT22;6539;49.476;8.484;2023-03-03T17:17:41;10.90;97.40
12948;DHT22;6539;49.476;8.484;2023-03-03T17:31:57;10.70;96.30
12948;DHT22;6539;49.476;8.484;2023-03-03T17:34:32;10.80;96.30
12948;DHT22;6539;49.476;8.484;2023-03-03T17:43:10;10.60;99.00
12948;DHT22;6539;49.476;8.484;2023-03-03T17:45:47;10.60;98.20
12948;DHT22;6539;49.476;8.484;2023-03-03T17:59:42;10.50;97.60
12948;DHT22;6539;49.476;8.484;2023-03-03T18:02:31;10.50;98.50
12948;DHT22;6539;49.476;8.484;2023-03-03T18:22:49;10.10;95.80
12948;DHT22;6539;49.476;8.484;2023-03-03T18:25:24;10.10;98.00
12948;DHT22;6539;49.476;8.484;2023-03-03T18:28:22;10.20;98.70
12948;DHT22;6539;49.476;8.484;2023-03-03T18:31:00;10.00;97.50
12948;DHT22;6539;49.476;8.484;2023-03-03T18:33:43;10.10;99.40
12948;DHT22;6539;49.476;8.484;2023-03-03T18:38:58;10.00;99.80
12948;DHT22;6539;49.476;8.484;2023-03-03T18:50:41;9.90;98.60
12948;DHT22;6539;49.476;8.484;2023-03-03T18:55:56;9.90;98.30
12948;DHT22;6539;49.476;8.484;2023-03-03T18:58:36;9.80;98.40
12948;DHT22;6539;49.476;8.484;2023-03-03T19:04:16;9.60;98.20
12948;DHT22;6539;49.476;8.484;2023-03-03T19:09:18;9.60;99.90
12948;DHT22;6539;49.476;8.484;2023-03-03T19:12:08;9.40;99.90
12948;DHT22;6539;49.476;8.484;2023-03-03T19:14:46;9.40;98.90
12948;DHT22;6539;49.476;8.484;2023-03-03T19:20:09;9.30;99.90
12948;DHT22;6539;49.476;8.484;2023-03-03T19:22:51;9.50;99.90
12948;DHT22;6539;49.476;8.484;2023-03-03T19:25:30;9.10;99.90
12948;DHT22;6539;49.476;8.484;2023-03-03T19:31:01;8.90;99.90
12948;DHT22;6539;49.476;8.484;2023-03-03T19:33:54;9.00;99.90
12948;DHT22;6539;49.476;8.484;2023-03-03T19:47:05;8.90;99.90
12948;DHT22;6539;49.476;8.484;2023-03-03T19:50:21;8.90;99.90
12948;DHT22;6539;49.476;8.484;2023-03-03T19:53:12;9.10;99.90
12948;DHT22;6539;49.476;8.484;2023-03-03T20:05:20;8.80;99.90
12948;DHT22;6539;49.476;8.484;2023-03-03T20:08:01;8.90;99.90
12948;DHT22;6539;49.476;8.484;2023-03-03T20:14:47;8.50;99.90
12948;DHT22;6539;49.476;8.484;2023-03-03T20:26:05;8.10;99.90
12948;DHT22;6539;49.476;8.484;2023-03-03T20:40:28;8.10;99.90
12948;DHT22;6539;49.476;8.484;2023-03-03T20:43:13;8.10;99.90
12948;DHT22;6539;49.476;8.484;2023-03-03T20:46:02;7.90;99.90
12948;DHT22;6539;49.476;8.484;2023-03-03T20:57:27;7.80;99.90
12948;DHT22;6539;49.476;8.484;2023-03-03T21:02:53;7.80;99.90
12948;DHT22;6539;49.476;8.484;2023-03-03T21:05:27;8.00;99.90
12948;DHT22;6539;49.476;8.484;2023-03-03T21:08:00;8.00;99.90
12948;DHT22;6539;49.476;8.484;2023-03-03T21:10:33;7.70;99.90
12948;DHT22;6539;49.476;8.484;2023-03-03T21:13:26;7.70;99.90
12948;DHT22;6539;49.476;8.484;2023-03-03T21:16:11;7.70;99.90
12948;DHT22;6539;49.476;8.484;2023-03-03T21:19:05;7.90;99.90
12948;DHT22;6539;49.476;8.484;2023-03-03T21:21:42;7.80;99.90
12948;DHT22;6539;49.476;8.484;2023-03-03T21:24:12;7.60;99.90
12948;DHT22;6539;49.476;8.484;2023-03-03T21:29:31;7.60;99.90
12948;DHT22;6539;49.476;8.484;2023-03-03T21:32:08;7.70;99.90
12948;DHT22;6539;49.476;8.484;2023-03-03T21:34:39;7.50;99.90
12948;DHT22;6539;49.476;8.484;2023-03-03T21:37:11;7.60;99.90
12948;DHT22;6539;49.476;8.484;2023-03-03T21:39:43;7.70;99.90
12948;DHT22;6539;49.476;8.484;2023-03-03T21:42:17;7.40;99.90
12948;DHT22;6539;49.476;8.484;2023-03-03T21:45:12;7.40;99.90
12948;DHT22;6539;49.476;8.484;2023-03-03T21:47:41;7.20;99.90
12948;DHT22;6539;49.476;8.484;2023-03-03T21:50:08;7.40;99.90
12948;DHT22;6539;49.476;8.484;2023-03-03T21:52:35;7.10;99.90
12948;DHT22;6539;49.476;8.484;2023-03-03T21:55:01;7.30;99.90
12948;DHT22;6539;49.476;8.484;2023-03-03T21:57:27;7.30;99.90
12948;DHT22;6539;49.476;8.484;2023-03-03T21:59:57;7.60;99.90
12948;DHT22;6539;49.476;8.484;2023-03-03T22:02:25;7.50;99.90
12948;DHT22;6539;49.476;8.484;2023-03-03T22:04:51;7.40;99.90
12948;DHT22;6539;49.476;8.484;2023-03-03T22:07:17;7.40;99.90
12948;DHT22;6539;49.476;8.484;2023-03-03T22:09:43;6.90;99.90
12948;DHT22;6539;49.476;8.484;2023-03-03T22:12:09;7.30;99.90
12948;DHT22;6539;49.476;8.484;2023-03-03T22:14:34;6.90;99.90
12948;DHT22;6539;49.476;8.484;2023-03-03T22:17:02;7.20;99.90
12948;DHT22;6539;49.476;8.484;2023-03-03T22:19:30;7.10;99.90
12948;DHT22;6539;49.476;8.484;2023-03-03T22:21:58;7.10;99.90
12948;DHT22;6539;49.476;8.484;2023-03-03T22:24:24;6.90;99.90
12948;DHT22;6539;49.476;8.484;2023-03-03T22:26:50;6.80;99.90
12948;DHT22;6539;49.476;8.484;2023-03-03T22:29:18;7.00;99.90
12948;DHT22;6539;49.476;8.484;2023-03-03T22:31:47;7.00;99.90
12948;DHT22;6539;49.476;8.484;2023-03-03T22:34:14;6.60;99.90
12948;DHT22;6539;49.476;8.484;2023-03-03T22:36:42;6.70;99.90
12948;DHT22;6539;49.476;8.484;2023-03-03T22:39:10;6.70;99.90
12948;DHT22;6539;49.476;8.484;2023-03-03T22:41:36;6.50;99.90
12948;DHT22;6539;49.476;8.484;2023-03-03T22:44:04;6.50;99.90
12948;DHT22;6539;49.476;8.484;2023-03-03T22:46:32;6.40;99.90
12948;DHT22;6539;49.476;8.484;2023-03-03T22:49:00;6.50;99.90
12948;DHT22;6539;49.476;8.484;2023-03-03T22:51:26;6.40;99.90
12948;DHT22;6539;49.476;8.484;2023-03-03T22:53:54;6.30;99.90
12948;DHT22;6539;49.476;8.484;2023-03-03T22:56:20;6.30;99.90
12948;DHT22;6539;49.476;8.484;2023-03-03T22:58:48;6.40;99.90
12948;DHT22;6539;49.476;8.484;2023-03-03T23:01:14;6.50;99.90
12948;DHT22;6539;49.476;8.484;2023-03-03T23:06:08;6.20;99.90
12948;DHT22;6539;49.476;8.484;2023-03-03T23:08:36;6.50;99.90
12948;DHT22;6539;49.476;8.484;2023-03-03T23:11:02;6.30;99.90
12948;DHT22;6539;49.476;8.484;2023-03-03T23:13:30;6.50;99.90
12948;DHT22;6539;49.476;8.484;2023-03-03T23:15:59;6.30;99.90
12948;DHT22;6539;49.476;8.484;2023-03-03T23:18:27;6.20;99.90
12948;DHT22;6539;49.476;8.484;2023-03-03T23:20:54;6.10;99.90
12948;DHT22;6539;49.476;8.484;2023-03-03T23:23:23;6.20;99.90
12948;DHT22;6539;49.476;8.484;2023-03-03T23:25:51;6.10;99.90
12948;DHT22;6539;49.476;8.484;2023-03-03T23:28:17;6.20;99.90
12948;DHT22;6539;49.476;8.484;2023-03-03T23:33:09;5.80;99.90
12948;DHT22;6539;49.476;8.484;2023-03-03T23:35:37;5.80;99.90
12948;DHT22;6539;49.476;8.484;2023-03-03T23:42:56;5.90;99.90
12948;DHT22;6539;49.476;8.484;2023-03-03T23:45:21;6.30;99.90
12948;DHT22;6539;49.476;8.484;2023-03-03T23:47:50;5.90;99.90
12948;DHT22;6539;49.476;8.484;2023-03-03T23:50:15;5.80;99.90
12948;DHT22;6539;49.476;8.484;2023-03-03T23:52:41;5.90;99.90
12948;DHT22;6539;49.476;8.484;2023-03-03T23:57:40;5.90;99.90
